タシュケント の空港の天気 - METARとTAF

タシケント空港 ( UTTT / TAS ) - ウズベキスタン タシュケント
飛行場実況気象(Metar)
観測時間04/25 21:00 +05 (04/25 16:00 UTC)
風向・風速静穏 0m/s
視程10km以上
天気現象
なし
気温22℃
湿度53%
気圧1014hPa
METARUTTT 251600Z 00000KT CAVOK 22/12 Q1014 R08R/CLRD70 NOSIG
過去の天気等 Google飛行場航空写真 Wunderground天気予報

過去48時間のMETAR

飛行場予報(TAF)
発表時間: 4/25 16:00 +05 (4/25 11:00 UTC)
予報対象時間: 25日17時 +05 ~ 26日17時 +05
風向・風速北 6m/s
視程7,000m
なし
TAF UTTT 251100Z 2512/2612 36012KT 7000 NSC